createdAt,value
2023-02-22T00:00:51.631Z,37.70
2023-02-22T00:01:51.867Z,37.00
2023-02-22T00:02:51.642Z,36.90
2023-02-22T00:03:51.628Z,37.50
2023-02-22T00:04:51.611Z,41.90
2023-02-22T00:05:51.606Z,40.60
2023-02-22T00:06:51.611Z,40.90
2023-02-22T00:07:51.600Z,41.80
2023-02-22T00:08:51.594Z,42.10
2023-02-22T00:09:51.582Z,40.40
2023-02-22T00:10:51.585Z,39.70
2023-02-22T00:11:51.576Z,44.50
2023-02-22T00:12:51.572Z,43.20
2023-02-22T00:13:51.567Z,42.80
2023-02-22T00:14:51.946Z,42.90
2023-02-22T00:15:51.555Z,44.00
2023-02-22T00:16:51.547Z,44.70
2023-02-22T00:17:51.546Z,44.80
2023-02-22T00:18:51.537Z,45.90
2023-02-22T00:19:51.533Z,46.30
2023-02-22T00:20:51.530Z,44.70
2023-02-22T00:21:51.525Z,41.50
2023-02-22T00:22:51.519Z,42.30
2023-02-22T00:23:51.513Z,38.20
2023-02-22T00:24:51.508Z,38.00
2023-02-22T00:25:51.505Z,40.40
2023-02-22T00:26:51.496Z,44.70
2023-02-22T00:27:51.495Z,43.60
2023-02-22T00:28:51.491Z,44.10
2023-02-22T00:29:51.481Z,43.60
2023-02-22T00:30:51.496Z,45.60
2023-02-22T00:31:51.604Z,44.10
2023-02-22T00:32:51.464Z,42.50
2023-02-22T00:33:51.462Z,45.30
2023-02-22T00:34:51.456Z,45.50
2023-02-22T00:35:51.454Z,45.30
2023-02-22T00:36:51.441Z,44.00
2023-02-22T00:37:51.445Z,41.70
2023-02-22T00:38:51.439Z,40.70
2023-02-22T00:39:51.434Z,41.30
2023-02-22T00:40:51.436Z,38.20
2023-02-22T00:41:51.463Z,37.10
2023-02-22T00:42:51.416Z,37.10
2023-02-22T00:43:51.420Z,40.10
2023-02-22T00:44:51.403Z,39.00
2023-02-22T00:45:51.432Z,39.20
2023-02-22T00:46:51.412Z,41.80
2023-02-22T00:47:51.400Z,42.80
2023-02-22T00:48:51.384Z,40.80
2023-02-22T00:49:51.386Z,41.60
2023-02-22T00:50:51.372Z,43.10
2023-02-22T00:51:51.378Z,41.70
2023-02-22T00:52:51.369Z,41.90
2023-02-22T00:53:51.360Z,40.00
2023-02-22T00:54:51.353Z,38.10
2023-02-22T00:55:51.359Z,39.80
2023-02-22T00:56:51.343Z,37.60
2023-02-22T00:57:51.342Z,42.00
2023-02-22T00:58:51.330Z,38.30
2023-02-22T00:59:51.331Z,42.80
2023-02-22T01:00:51.371Z,38.90
2023-02-22T01:01:51.319Z,39.50
2023-02-22T01:02:51.327Z,41.20
2023-02-22T01:03:51.305Z,39.30
2023-02-22T01:04:51.306Z,43.90
2023-02-22T01:05:51.302Z,42.20
2023-02-22T01:06:51.286Z,46.30
2023-02-22T01:07:51.288Z,42.40
2023-02-22T01:08:51.278Z,49.10
2023-02-22T01:09:51.273Z,47.20
2023-02-22T01:10:51.266Z,51.00
2023-02-22T01:11:51.262Z,41.80
2023-02-22T01:12:51.283Z,44.60
2023-02-22T01:13:51.254Z,44.50
2023-02-22T01:14:51.658Z,40.70
2023-02-22T01:15:51.242Z,41.40
2023-02-22T01:16:51.341Z,42.30
2023-02-22T01:17:51.238Z,43.00
2023-02-22T01:18:51.250Z,36.90
2023-02-22T01:19:53.858Z,33.30
2023-02-22T01:20:51.213Z,46.00
2023-02-22T01:21:51.220Z,53.40
2023-02-22T01:22:51.207Z,44.50
2023-02-22T01:23:51.203Z,40.70
2023-02-22T01:24:51.196Z,43.50
2023-02-22T01:25:51.195Z,45.50
2023-02-22T01:26:51.183Z,40.60
2023-02-22T01:27:51.177Z,44.90
2023-02-22T01:28:51.169Z,46.00
2023-02-22T01:29:51.167Z,44.00
2023-02-22T01:30:51.230Z,44.80
2023-02-22T01:31:51.183Z,43.30
2023-02-22T01:32:51.176Z,39.30
2023-02-22T01:33:51.146Z,44.60
2023-02-22T01:34:51.158Z,54.50
2023-02-22T01:35:51.135Z,54.80
2023-02-22T01:36:51.126Z,41.40
2023-02-22T01:37:51.124Z,47.80
2023-02-22T01:38:51.123Z,39.80
2023-02-22T01:39:51.120Z,37.70
2023-02-22T01:40:51.111Z,46.40
2023-02-22T01:41:51.099Z,39.30
2023-02-22T01:42:51.102Z,35.20
2023-02-22T01:43:51.096Z,49.00
2023-02-22T01:44:51.080Z,35.50
2023-02-22T01:45:51.173Z,37.00
2023-02-22T01:46:51.068Z,40.10
2023-02-22T01:47:51.067Z,46.40
2023-02-22T01:48:51.060Z,48.50
2023-02-22T01:49:51.054Z,35.40
2023-02-22T01:50:51.067Z,37.70
2023-02-22T01:51:51.048Z,45.50
2023-02-22T01:52:51.050Z,43.00
2023-02-22T01:53:51.035Z,44.40
2023-02-22T01:54:51.038Z,42.60
2023-02-22T01:55:51.032Z,39.30
2023-02-22T01:56:51.016Z,38.50
2023-02-22T01:57:51.011Z,33.80
2023-02-22T01:58:51.002Z,38.20
2023-02-22T01:59:51.002Z,40.60
2023-02-22T02:00:51.007Z,32.80
2023-02-22T02:01:50.992Z,29.70
2023-02-22T02:02:50.985Z,28.10
2023-02-22T02:03:51.004Z,31.50
2023-02-22T02:04:51.027Z,34.30
2023-02-22T02:05:50.968Z,28.50
2023-02-22T02:06:50.989Z,35.50
2023-02-22T02:07:50.955Z,26.60
2023-02-22T02:08:50.948Z,33.30
2023-02-22T02:09:50.952Z,25.40
2023-02-22T02:10:50.945Z,25.20
2023-02-22T02:11:50.933Z,33.00
2023-02-22T02:12:50.944Z,34.00
2023-02-22T02:13:50.924Z,31.00
2023-02-22T02:14:50.923Z,34.50
2023-02-22T02:15:50.916Z,40.90
2023-02-22T02:16:50.998Z,46.10
2023-02-22T02:17:50.959Z,39.20
2023-02-22T02:18:50.894Z,42.80
2023-02-22T02:19:51.343Z,54.70
2023-02-22T02:20:50.885Z,44.30
2023-02-22T02:21:50.881Z,41.10
2023-02-22T02:22:50.896Z,41.40
2023-02-22T02:23:50.872Z,53.00
2023-02-22T02:24:50.912Z,43.00
2023-02-22T02:25:50.860Z,33.60
2023-02-22T02:26:50.862Z,35.80
2023-02-22T02:27:50.861Z,33.50
2023-02-22T02:28:50.858Z,29.90
2023-02-22T02:29:50.891Z,33.20
2023-02-22T02:30:50.847Z,34.10
2023-02-22T02:31:51.028Z,24.20
2023-02-22T02:32:50.857Z,25.80
2023-02-22T02:33:50.888Z,23.40
2023-02-22T02:34:50.888Z,17.50
2023-02-22T02:35:50.839Z,25.10
2023-02-22T02:36:50.798Z,19.40
2023-02-22T02:37:50.796Z,20.70
2023-02-22T02:38:50.880Z,24.10
2023-02-22T02:39:50.784Z,22.20
2023-02-22T02:40:50.783Z,25.20
2023-02-22T02:41:50.775Z,22.80
2023-02-22T02:42:50.766Z,32.70
2023-02-22T02:43:50.774Z,31.90
2023-02-22T02:44:50.755Z,24.20
2023-02-22T02:45:50.754Z,21.70
2023-02-22T02:46:50.772Z,26.40
2023-02-22T02:47:50.740Z,23.60
2023-02-22T02:48:50.732Z,29.80
2023-02-22T02:49:50.731Z,21.40
2023-02-22T02:50:50.726Z,24.50
2023-02-22T02:51:50.719Z,22.90
2023-02-22T02:52:50.711Z,25.10
2023-02-22T02:53:50.709Z,20.60
2023-02-22T02:54:50.720Z,24.40
2023-02-22T02:55:50.694Z,22.30
2023-02-22T02:56:50.705Z,24.10
2023-02-22T02:57:50.703Z,28.00
2023-02-22T02:58:50.684Z,28.00
2023-02-22T02:59:50.677Z,29.30
2023-02-22T03:00:50.681Z,30.40
2023-02-22T03:01:50.722Z,34.90
2023-02-22T03:02:50.657Z,33.20
2023-02-22T03:03:50.654Z,34.60
2023-02-22T03:04:50.657Z,32.10
2023-02-22T03:05:50.646Z,32.80
2023-02-22T03:06:50.640Z,35.50
2023-02-22T03:07:50.636Z,32.40
2023-02-22T03:08:50.636Z,29.20
2023-02-22T03:09:50.622Z,35.40
2023-02-22T03:10:50.633Z,31.40
2023-02-22T03:11:50.609Z,33.60
2023-02-22T03:12:50.604Z,34.90
2023-02-22T03:13:50.600Z,35.20
2023-02-22T03:14:50.593Z,35.60
2023-02-22T03:15:50.587Z,32.00
2023-02-22T03:16:50.582Z,38.30
2023-02-22T03:17:50.576Z,36.00
2023-02-22T03:18:50.568Z,36.90
2023-02-22T03:19:50.565Z,30.80
2023-02-22T03:20:50.557Z,35.70
2023-02-22T03:21:50.555Z,28.50
2023-02-22T03:22:50.548Z,27.40
2023-02-22T03:23:50.550Z,32.00
2023-02-22T03:24:50.540Z,26.40
2023-02-22T03:25:50.546Z,33.20
2023-02-22T03:26:50.547Z,26.70
2023-02-22T03:27:50.530Z,26.60
2023-02-22T03:28:50.530Z,24.40
2023-02-22T03:29:50.519Z,24.60
2023-02-22T03:30:50.578Z,24.70
2023-02-22T03:31:50.530Z,32.90
2023-02-22T03:32:50.501Z,29.20
2023-02-22T03:33:50.495Z,47.10
2023-02-22T03:34:50.493Z,33.60
2023-02-22T03:35:50.485Z,26.00
2023-02-22T03:36:50.476Z,24.30
2023-02-22T03:37:50.481Z,26.30
2023-02-22T03:38:50.468Z,35.60
2023-02-22T03:39:50.465Z,28.30
2023-02-22T03:40:50.454Z,36.40
2023-02-22T03:41:50.453Z,27.90
2023-02-22T03:42:50.463Z,38.00
2023-02-22T03:43:50.449Z,32.40
2023-02-22T03:44:50.432Z,19.80
2023-02-22T03:45:50.430Z,31.90
2023-02-22T03:46:50.426Z,21.50
2023-02-22T03:47:50.421Z,28.90
2023-02-22T03:48:50.412Z,20.40
2023-02-22T03:49:50.403Z,23.70
2023-02-22T03:50:50.399Z,23.90
2023-02-22T03:51:50.391Z,25.30
2023-02-22T03:52:50.389Z,32.20
2023-02-22T03:53:50.410Z,38.50
2023-02-22T03:54:50.375Z,37.50
2023-02-22T03:55:50.369Z,35.60
2023-02-22T03:56:50.363Z,26.80
2023-02-22T03:57:50.355Z,36.00
2023-02-22T03:58:50.392Z,35.10
2023-02-22T03:59:50.350Z,41.60
2023-02-22T04:00:50.342Z,45.20
2023-02-22T04:01:50.336Z,34.00
2023-02-22T04:02:50.442Z,28.10
2023-02-22T04:03:50.344Z,35.50
2023-02-22T04:04:50.332Z,35.30
2023-02-22T04:05:50.315Z,30.10
2023-02-22T04:06:50.308Z,32.50
2023-02-22T04:07:50.302Z,26.40
2023-02-22T04:08:50.311Z,25.80
2023-02-22T04:09:50.298Z,27.00
2023-02-22T04:10:50.285Z,24.10
2023-02-22T04:11:50.287Z,25.70
2023-02-22T04:12:50.274Z,29.50
2023-02-22T04:13:50.269Z,30.70
2023-02-22T04:14:50.290Z,36.20
2023-02-22T04:15:50.286Z,27.50
2023-02-22T04:16:50.251Z,26.10
2023-02-22T04:17:50.246Z,23.20
2023-02-22T04:18:50.239Z,27.70
2023-02-22T04:19:50.233Z,32.90
2023-02-22T04:20:50.234Z,35.50
2023-02-22T04:21:50.238Z,30.20
2023-02-22T04:22:50.220Z,26.70
2023-02-22T04:23:50.214Z,31.70
2023-02-22T04:24:50.359Z,20.70
2023-02-22T04:25:50.206Z,22.10
2023-02-22T04:26:50.196Z,22.60
2023-02-22T04:27:50.189Z,30.10
2023-02-22T04:28:50.185Z,20.50
2023-02-22T04:29:50.190Z,26.20
2023-02-22T04:30:50.198Z,22.40
2023-02-22T04:31:50.193Z,25.90
2023-02-22T04:32:50.171Z,25.60
2023-02-22T04:33:50.158Z,28.20
2023-02-22T04:34:50.149Z,25.20
2023-02-22T04:35:50.146Z,24.50
2023-02-22T04:36:50.138Z,26.10
2023-02-22T04:37:50.134Z,33.90
2023-02-22T04:38:50.132Z,38.10
2023-02-22T04:39:50.141Z,30.30
2023-02-22T04:40:50.118Z,26.40
2023-02-22T04:41:50.111Z,29.10
2023-02-22T04:42:50.104Z,30.90
2023-02-22T04:43:50.100Z,42.40
2023-02-22T04:44:50.098Z,32.80
2023-02-22T04:45:50.091Z,32.90
2023-02-22T04:46:50.101Z,41.10
2023-02-22T04:47:50.078Z,36.20
2023-02-22T04:48:50.078Z,39.40
2023-02-22T04:49:50.063Z,39.40
2023-02-22T04:50:50.061Z,40.90
2023-02-22T04:51:50.052Z,28.30
2023-02-22T04:52:50.053Z,31.40
2023-02-22T04:53:50.040Z,38.60
2023-02-22T04:54:50.043Z,33.10
2023-02-22T04:55:50.042Z,28.70
2023-02-22T04:56:50.035Z,29.00
2023-02-22T04:57:50.025Z,27.10
2023-02-22T04:58:50.055Z,26.80
2023-02-22T04:59:50.015Z,25.60
2023-02-22T05:00:50.006Z,25.10
2023-02-22T05:01:49.995Z,27.20
2023-02-22T05:02:50.082Z,26.00
2023-02-22T05:03:49.990Z,27.80
2023-02-22T05:04:50.014Z,28.60
2023-02-22T05:05:49.977Z,26.90
2023-02-22T05:06:49.968Z,33.70
2023-02-22T05:07:49.972Z,34.80
2023-02-22T05:08:49.956Z,28.00
2023-02-22T05:09:49.954Z,24.30
2023-02-22T05:10:49.946Z,23.00
2023-02-22T05:11:49.937Z,22.80
2023-02-22T05:12:49.933Z,24.60
2023-02-22T05:13:49.924Z,23.70
2023-02-22T05:14:49.920Z,29.50
2023-02-22T05:15:49.995Z,22.40
2023-02-22T05:16:49.908Z,23.60
2023-02-22T05:17:49.902Z,26.30
2023-02-22T05:18:49.922Z,24.30
2023-02-22T05:19:49.894Z,25.50
2023-02-22T05:20:49.888Z,24.70
2023-02-22T05:21:49.880Z,21.80
2023-02-22T05:22:49.875Z,21.80
2023-02-22T05:23:49.867Z,22.20
2023-02-22T05:24:49.865Z,21.90
2023-02-22T05:25:49.855Z,22.50
2023-02-22T05:26:49.852Z,20.80
2023-02-22T05:27:49.845Z,23.00
2023-02-22T05:28:49.843Z,21.60
2023-02-22T05:29:50.032Z,19.80
2023-02-22T05:30:49.827Z,21.90
2023-02-22T05:31:49.928Z,23.30
2023-02-22T05:32:49.815Z,19.80
2023-02-22T05:33:49.807Z,23.00
2023-02-22T05:34:49.828Z,25.30
2023-02-22T05:35:49.798Z,21.70
2023-02-22T05:36:49.790Z,19.30
2023-02-22T05:37:49.787Z,21.80
2023-02-22T05:38:49.799Z,18.10
2023-02-22T05:39:49.774Z,19.70
2023-02-22T05:40:49.771Z,21.90
2023-02-22T05:41:49.762Z,20.30
2023-02-22T05:42:49.758Z,19.30
2023-02-22T05:43:49.750Z,21.10
2023-02-22T05:44:49.744Z,18.70
2023-02-22T05:45:49.742Z,19.70
2023-02-22T05:46:49.798Z,19.00
2023-02-22T05:47:49.731Z,19.80
2023-02-22T05:48:49.720Z,19.50
2023-02-22T05:49:49.715Z,22.30
2023-02-22T05:50:49.726Z,22.00
2023-02-22T05:51:49.701Z,19.90
2023-02-22T05:52:49.705Z,20.80
2023-02-22T05:53:49.688Z,24.20
2023-02-22T05:54:49.682Z,21.10
2023-02-22T05:55:49.674Z,20.30
2023-02-22T05:56:49.676Z,22.30
2023-02-22T05:57:49.663Z,23.10
2023-02-22T05:58:49.658Z,25.20
2023-02-22T05:59:49.659Z,24.90
2023-02-22T06:00:49.676Z,24.10
2023-02-22T06:01:49.672Z,24.80
2023-02-22T06:02:49.642Z,24.20
2023-02-22T06:03:49.639Z,23.80
2023-02-22T06:04:49.618Z,21.70
2023-02-22T06:05:49.680Z,26.50
2023-02-22T06:06:49.631Z,25.00
2023-02-22T06:07:49.600Z,26.20
2023-02-22T06:08:49.613Z,25.90
2023-02-22T06:09:49.594Z,25.10
2023-02-22T06:10:49.585Z,24.00
2023-02-22T06:11:49.587Z,23.80
2023-02-22T06:12:49.571Z,26.40
2023-02-22T06:13:49.566Z,26.60
2023-02-22T06:14:49.563Z,21.90
2023-02-22T06:15:49.568Z,23.90
2023-02-22T06:16:49.550Z,23.90
2023-02-22T06:17:49.542Z,24.00
2023-02-22T06:18:49.536Z,24.90
2023-02-22T06:19:49.534Z,25.00
2023-02-22T06:20:49.528Z,24.50
2023-02-22T06:21:49.526Z,26.60
2023-02-22T06:22:49.528Z,25.20
2023-02-22T06:23:49.503Z,27.30
2023-02-22T06:24:49.570Z,26.90
2023-02-22T06:25:49.504Z,27.40
2023-02-22T06:26:49.491Z,26.00
2023-02-22T06:27:49.480Z,25.60
2023-02-22T06:28:49.491Z,24.90
2023-02-22T06:29:49.820Z,29.00
2023-02-22T06:30:49.497Z,25.10
2023-02-22T06:31:49.562Z,24.20
2023-02-22T06:32:49.449Z,25.70
2023-02-22T06:33:49.442Z,22.10
2023-02-22T06:34:49.448Z,22.30
2023-02-22T06:35:49.433Z,23.70
2023-02-22T06:36:49.431Z,25.60
2023-02-22T06:37:49.419Z,22.60
2023-02-22T06:38:49.441Z,23.60
2023-02-22T06:39:49.414Z,26.40
2023-02-22T06:40:49.408Z,25.50
2023-02-22T06:41:49.435Z,29.40
2023-02-22T06:42:49.402Z,27.40
2023-02-22T06:43:49.401Z,21.10
2023-02-22T06:44:51.656Z,23.20
2023-02-22T06:45:49.433Z,21.60
2023-02-22T06:46:49.375Z,22.50
2023-02-22T06:47:49.362Z,22.80
2023-02-22T06:48:49.355Z,22.20
2023-02-22T06:49:49.349Z,19.70
2023-02-22T06:50:49.346Z,19.00
2023-02-22T06:51:49.337Z,18.00
2023-02-22T06:52:49.335Z,18.20
2023-02-22T06:53:49.322Z,18.80
2023-02-22T06:54:49.337Z,19.10
2023-02-22T06:55:49.315Z,19.10
2023-02-22T06:56:49.306Z,18.20
2023-02-22T06:57:49.302Z,19.00
2023-02-22T06:58:49.297Z,19.10
2023-02-22T06:59:49.291Z,17.00
2023-02-22T07:00:49.332Z,19.70
2023-02-22T07:01:49.280Z,18.50
2023-02-22T07:02:49.281Z,18.40
2023-02-22T07:03:49.267Z,19.70
2023-02-22T07:04:49.263Z,17.50
2023-02-22T07:05:49.271Z,18.60
2023-02-22T07:06:49.253Z,18.80
2023-02-22T07:07:49.249Z,18.10
2023-02-22T07:08:49.242Z,18.70
2023-02-22T07:09:49.236Z,18.40
2023-02-22T07:10:49.249Z,20.60
2023-02-22T07:11:49.224Z,19.80
2023-02-22T07:12:49.220Z,20.50
2023-02-22T07:13:49.344Z,20.30
2023-02-22T07:14:49.210Z,21.20
2023-02-22T07:15:49.203Z,20.50
2023-02-22T07:16:49.203Z,23.00
2023-02-22T07:17:49.188Z,21.00
2023-02-22T07:18:49.187Z,21.60
2023-02-22T07:19:49.178Z,20.90
2023-02-22T07:20:49.201Z,20.30
2023-02-22T07:21:49.173Z,20.80
2023-02-22T07:22:49.158Z,19.70
2023-02-22T07:23:49.156Z,21.20
2023-02-22T07:24:49.153Z,21.20
2023-02-22T07:25:49.143Z,21.40
2023-02-22T07:26:49.156Z,19.80
2023-02-22T07:27:49.130Z,21.70
2023-02-22T07:28:49.134Z,20.60
2023-02-22T07:29:49.471Z,23.00
2023-02-22T07:30:49.193Z,22.40
2023-02-22T07:31:49.161Z,20.70
2023-02-22T07:32:49.155Z,20.00
2023-02-22T07:33:49.192Z,20.10
2023-02-22T07:34:49.095Z,21.80
2023-02-22T07:35:49.110Z,21.80
2023-02-22T07:36:49.090Z,21.10
2023-02-22T07:37:49.072Z,20.90
2023-02-22T07:38:49.069Z,22.80
2023-02-22T07:39:49.066Z,20.50
2023-02-22T07:40:49.063Z,22.00
2023-02-22T07:41:49.050Z,19.30
2023-02-22T07:42:49.070Z,21.10
2023-02-22T07:43:49.047Z,19.30
2023-02-22T07:44:49.033Z,19.20
2023-02-22T07:45:49.144Z,18.60
2023-02-22T07:46:49.040Z,19.80
2023-02-22T07:47:49.021Z,18.30
2023-02-22T07:48:49.014Z,19.70
2023-02-22T07:49:49.006Z,18.80
2023-02-22T07:50:49.008Z,19.30
2023-02-22T07:51:48.994Z,18.80
2023-02-22T07:52:48.989Z,20.30
2023-02-22T07:53:48.983Z,19.10
2023-02-22T07:54:49.029Z,19.50
2023-02-22T07:55:48.976Z,19.20
2023-02-22T07:56:48.988Z,20.60
2023-02-22T07:57:48.967Z,19.50
2023-02-22T07:58:48.980Z,20.50
2023-02-22T07:59:48.960Z,20.80
2023-02-22T08:00:48.940Z,22.90
2023-02-22T08:01:48.941Z,22.50
2023-02-22T08:02:48.996Z,23.70
2023-02-22T08:03:49.006Z,21.90
2023-02-22T08:04:48.918Z,23.20
2023-02-22T08:05:48.921Z,23.20
2023-02-22T08:06:48.917Z,22.70
2023-02-22T08:07:48.907Z,23.80
2023-02-22T08:08:48.909Z,24.00
2023-02-22T08:09:48.893Z,24.50
2023-02-22T08:10:48.891Z,23.30
2023-02-22T08:11:48.887Z,24.40
2023-02-22T08:12:48.874Z,25.80
2023-02-22T08:13:48.877Z,24.00
2023-02-22T08:14:48.889Z,23.70
2023-02-22T08:15:48.867Z,23.60
2023-02-22T08:16:48.889Z,23.30
2023-02-22T08:17:48.849Z,23.40
2023-02-22T08:18:48.855Z,23.50
2023-02-22T08:19:48.839Z,24.20
2023-02-22T08:20:48.831Z,20.10
2023-02-22T08:21:48.828Z,20.70
2023-02-22T08:22:48.828Z,24.30
2023-02-22T08:23:48.819Z,21.40
2023-02-22T08:24:48.809Z,21.20
2023-02-22T08:25:48.805Z,22.10
2023-02-22T08:26:48.804Z,20.40
2023-02-22T08:27:48.815Z,22.10
2023-02-22T08:28:48.791Z,21.60
2023-02-22T08:29:48.795Z,23.00
2023-02-22T08:30:48.851Z,21.50
2023-02-22T08:31:48.858Z,20.80
2023-02-22T08:32:48.954Z,20.90
2023-02-22T08:33:48.771Z,24.00
2023-02-22T08:34:48.757Z,22.30
2023-02-22T08:35:48.761Z,22.80
2023-02-22T08:36:48.746Z,22.10
2023-02-22T08:37:48.745Z,23.20
2023-02-22T08:38:48.743Z,24.30
2023-02-22T08:39:48.734Z,23.00
2023-02-22T08:40:48.737Z,22.10
2023-02-22T08:41:48.724Z,25.00
2023-02-22T08:42:48.730Z,23.90
2023-02-22T08:43:48.718Z,23.80
2023-02-22T08:44:48.710Z,26.40
2023-02-22T08:45:48.802Z,24.60
2023-02-22T08:46:48.719Z,25.60
2023-02-22T08:47:48.692Z,24.70
2023-02-22T08:48:48.683Z,26.00
2023-02-22T08:49:48.677Z,27.30
2023-02-22T08:50:48.674Z,26.50
2023-02-22T08:51:48.670Z,27.20
2023-02-22T08:52:48.671Z,28.40
2023-02-22T08:53:48.659Z,27.00
2023-02-22T08:54:48.656Z,28.10
2023-02-22T08:55:48.649Z,29.50
2023-02-22T08:56:48.640Z,26.20
2023-02-22T08:57:48.637Z,25.00
2023-02-22T08:58:48.630Z,27.40
2023-02-22T08:59:48.638Z,30.50
2023-02-22T09:00:48.619Z,28.20
2023-02-22T09:01:48.678Z,28.10
2023-02-22T09:02:48.650Z,26.70
2023-02-22T09:03:48.654Z,24.60
2023-02-22T09:04:48.603Z,26.30
2023-02-22T09:05:48.647Z,28.30
2023-02-22T09:06:48.614Z,25.90
2023-02-22T09:07:48.586Z,27.00
2023-02-22T09:08:48.587Z,25.60
2023-02-22T09:09:48.575Z,24.10
2023-02-22T09:10:48.569Z,24.70
2023-02-22T09:11:48.568Z,27.60
2023-02-22T09:12:48.563Z,25.10
2023-02-22T09:13:48.566Z,24.80
2023-02-22T09:14:48.552Z,25.20
2023-02-22T09:15:48.546Z,24.70
2023-02-22T09:16:48.579Z,25.60
2023-02-22T09:17:48.546Z,25.50
2023-02-22T09:18:48.550Z,28.60
2023-02-22T09:19:48.529Z,29.00
2023-02-22T09:20:48.527Z,25.90
2023-02-22T09:21:48.520Z,26.80
2023-02-22T09:22:48.512Z,27.90
2023-02-22T09:23:48.508Z,27.30
2023-02-22T09:24:48.500Z,27.50
2023-02-22T09:25:48.499Z,26.10
2023-02-22T09:26:48.492Z,26.90
2023-02-22T09:27:48.496Z,29.20
2023-02-22T09:28:48.482Z,28.00
2023-02-22T09:29:48.487Z,26.60
2023-02-22T09:30:48.554Z,27.70
2023-02-22T09:31:48.569Z,26.20
2023-02-22T09:32:48.690Z,27.20
2023-02-22T09:33:48.460Z,27.50
2023-02-22T09:34:48.473Z,27.60
2023-02-22T09:35:48.454Z,29.50
2023-02-22T09:36:48.448Z,31.00
2023-02-22T09:37:48.451Z,30.80
2023-02-22T09:38:48.435Z,31.90
2023-02-22T09:39:48.529Z,29.60
2023-02-22T09:40:48.436Z,31.00
2023-02-22T09:41:48.436Z,28.90
2023-02-22T09:42:48.420Z,31.40
2023-02-22T09:43:48.415Z,29.50
2023-02-22T09:44:48.419Z,29.00
2023-02-22T09:45:48.459Z,29.00
2023-02-22T09:46:48.397Z,27.30
2023-02-22T09:47:48.418Z,28.30
2023-02-22T09:48:48.388Z,27.60
2023-02-22T09:49:48.395Z,28.40
2023-02-22T09:50:48.403Z,28.60
2023-02-22T09:51:48.378Z,28.60
2023-02-22T09:52:48.382Z,27.90
2023-02-22T09:53:48.369Z,30.30
2023-02-22T09:54:48.363Z,28.50
2023-02-22T09:55:48.359Z,29.30
2023-02-22T09:56:48.361Z,28.80
2023-02-22T09:57:48.352Z,29.50
2023-02-22T09:58:48.345Z,28.20
2023-02-22T09:59:48.340Z,30.00
2023-02-22T10:00:48.367Z,30.40
2023-02-22T10:01:48.332Z,27.70
2023-02-22T10:02:48.329Z,28.00
2023-02-22T10:03:48.356Z,28.00
2023-02-22T10:04:48.321Z,28.60
2023-02-22T10:05:48.314Z,29.30
2023-02-22T10:06:48.325Z,31.50
2023-02-22T10:07:48.306Z,28.30
2023-02-22T10:08:48.300Z,30.60
2023-02-22T10:09:48.299Z,32.10
2023-02-22T10:10:48.293Z,28.30
2023-02-22T10:11:48.288Z,31.30
2023-02-22T10:12:48.281Z,28.40
2023-02-22T10:13:48.281Z,28.40
2023-02-22T10:14:48.271Z,26.90
2023-02-22T10:15:48.268Z,28.20
2023-02-22T10:16:48.294Z,30.10
2023-02-22T10:17:48.262Z,28.30
2023-02-22T10:18:48.259Z,27.50
2023-02-22T10:19:48.264Z,28.50
2023-02-22T10:20:48.248Z,25.90
2023-02-22T10:21:48.247Z,24.30
2023-02-22T10:22:48.269Z,25.40
2023-02-22T10:23:48.235Z,26.30
2023-02-22T10:24:48.227Z,28.90
2023-02-22T10:25:48.225Z,27.50
2023-02-22T10:26:48.219Z,26.20
2023-02-22T10:27:48.224Z,27.50
2023-02-22T10:28:48.213Z,25.60
2023-02-22T10:29:48.211Z,24.80
2023-02-22T10:30:48.278Z,23.60
2023-02-22T10:31:48.390Z,23.50
2023-02-22T10:32:48.210Z,24.20
2023-02-22T10:33:48.247Z,21.30
2023-02-22T10:34:48.540Z,21.00
2023-02-22T10:35:48.220Z,19.50
2023-02-22T10:36:48.207Z,20.40
2023-02-22T10:37:48.272Z,22.80
2023-02-22T10:38:48.260Z,22.20
2023-02-22T10:39:48.228Z,21.30
2023-02-22T10:40:48.167Z,20.50
2023-02-22T10:41:48.167Z,19.60
2023-02-22T10:42:48.157Z,19.70
2023-02-22T10:43:48.152Z,21.20
2023-02-22T10:44:48.143Z,21.70
2023-02-22T10:45:48.186Z,20.30
2023-02-22T10:46:48.136Z,20.80
2023-02-22T10:47:48.136Z,20.30
2023-02-22T10:48:48.127Z,19.40
2023-02-22T10:49:48.124Z,20.20
2023-02-22T10:50:48.121Z,20.30
2023-02-22T10:51:48.116Z,19.90
2023-02-22T10:52:48.111Z,17.70
2023-02-22T10:53:48.108Z,19.40
2023-02-22T10:54:48.127Z,19.30
2023-02-22T10:55:48.127Z,20.00
2023-02-22T10:56:48.095Z,18.40
2023-02-22T10:57:48.095Z,17.60
2023-02-22T10:58:48.087Z,17.80
2023-02-22T10:59:48.086Z,17.60
2023-02-22T11:00:48.079Z,17.60
2023-02-22T11:01:48.234Z,17.70
2023-02-22T11:02:48.067Z,16.40
2023-02-22T11:03:48.068Z,17.00
2023-02-22T11:04:48.086Z,15.10
2023-02-22T11:05:48.056Z,13.30
2023-02-22T11:06:48.051Z,14.50
2023-02-22T11:07:48.053Z,12.60
2023-02-22T11:08:48.043Z,11.70
2023-02-22T11:09:48.043Z,11.90
2023-02-22T11:10:48.054Z,11.80
2023-02-22T11:11:48.029Z,13.20
2023-02-22T11:12:48.045Z,12.30
2023-02-22T11:13:48.028Z,12.70
2023-02-22T11:14:48.017Z,12.30
2023-02-22T11:15:48.017Z,12.20
2023-02-22T11:16:48.037Z,11.20
2023-02-22T11:17:48.011Z,11.60
2023-02-22T11:18:48.015Z,11.30
2023-02-22T11:19:48.005Z,12.20
2023-02-22T11:20:48.000Z,11.10
2023-02-22T11:21:47.987Z,11.20
2023-02-22T11:22:47.996Z,11.30
2023-02-22T11:23:47.982Z,12.00
2023-02-22T11:24:49.427Z,11.00
2023-02-22T11:25:47.974Z,10.80
2023-02-22T11:26:47.993Z,11.20
2023-02-22T11:27:47.973Z,11.80
2023-02-22T11:28:47.959Z,12.50
2023-02-22T11:29:47.954Z,11.10
2023-02-22T11:30:48.042Z,10.90
2023-02-22T11:31:48.029Z,11.10
2023-02-22T11:32:47.967Z,11.20
2023-02-22T11:33:47.938Z,11.20
2023-02-22T11:34:49.376Z,11.10
2023-02-22T11:35:48.283Z,10.60
2023-02-22T11:36:47.925Z,10.60
2023-02-22T11:37:47.921Z,13.00
2023-02-22T11:38:47.914Z,11.60
2023-02-22T11:39:47.996Z,10.70
2023-02-22T11:40:47.907Z,12.40
2023-02-22T11:41:47.906Z,10.10
2023-02-22T11:42:47.927Z,11.00
2023-02-22T11:43:47.900Z,11.00
2023-02-22T11:44:47.889Z,10.40
2023-02-22T11:45:57.815Z,11.40
2023-02-22T11:46:47.926Z,10.20
2023-02-22T11:47:47.888Z,10.90
2023-02-22T11:48:47.872Z,11.10
2023-02-22T11:49:47.872Z,11.30
2023-02-22T11:50:47.865Z,10.90
2023-02-22T11:51:47.863Z,10.70
2023-02-22T11:52:47.858Z,11.10
2023-02-22T11:53:47.853Z,11.70
2023-02-22T11:54:47.910Z,11.40
2023-02-22T11:55:47.845Z,10.90
2023-02-22T11:56:47.896Z,10.90
2023-02-22T11:57:47.846Z,10.90
2023-02-22T11:58:47.903Z,9.90
2023-02-22T11:59:47.831Z,10.90
2023-02-22T12:00:47.825Z,10.10
2023-02-22T12:01:47.834Z,11.60
2023-02-22T12:02:56.717Z,9.90
2023-02-22T12:03:47.915Z,10.00
2023-02-22T12:04:47.912Z,10.00
2023-02-22T12:05:47.805Z,9.60
2023-02-22T12:06:47.805Z,9.20
2023-02-22T12:07:47.811Z,9.50
2023-02-22T12:08:47.796Z,10.00
2023-02-22T12:09:47.788Z,10.10
2023-02-22T12:10:47.792Z,9.70
2023-02-22T12:11:47.801Z,9.40
2023-02-22T12:12:47.777Z,9.00
2023-02-22T12:13:47.778Z,10.80
2023-02-22T12:14:47.945Z,11.30
2023-02-22T12:15:47.821Z,9.00
2023-02-22T12:16:47.777Z,9.20
2023-02-22T12:17:58.095Z,10.20
2023-02-22T12:18:47.757Z,9.40
2023-02-22T12:19:47.751Z,9.60
2023-02-22T12:20:47.747Z,9.30
2023-02-22T12:21:47.745Z,9.80
2023-02-22T12:22:47.740Z,9.90
2023-02-22T12:23:47.739Z,9.30
2023-02-22T12:24:48.887Z,10.10
2023-02-22T12:25:47.734Z,9.80
2023-02-22T12:26:47.725Z,11.40
2023-02-22T12:27:47.725Z,10.10
2023-02-22T12:28:47.849Z,9.50
2023-02-22T12:29:47.724Z,9.90
2023-02-22T12:30:47.931Z,9.70
2023-02-22T12:31:47.817Z,9.40
2023-02-22T12:32:47.806Z,9.50
2023-02-22T12:33:47.746Z,10.10
2023-02-22T12:34:47.703Z,9.70
2023-02-22T12:35:47.707Z,9.90
2023-02-22T12:36:47.696Z,9.90
2023-02-22T12:37:47.688Z,10.00
2023-02-22T12:38:47.738Z,9.30
2023-02-22T12:39:53.567Z,10.10
2023-02-22T12:40:47.684Z,9.90
2023-02-22T12:41:47.676Z,9.90
2023-02-22T12:42:47.673Z,9.40
2023-02-22T12:43:47.674Z,10.70
2023-02-22T12:44:47.669Z,9.30
2023-02-22T12:45:47.662Z,8.90
2023-02-22T12:46:47.681Z,9.30
2023-02-22T12:47:47.657Z,9.60
2023-02-22T12:48:47.657Z,9.40
2023-02-22T12:49:47.660Z,10.60
2023-02-22T12:50:47.647Z,9.90
2023-02-22T12:51:47.642Z,10.80
2023-02-22T12:52:47.651Z,9.50
2023-02-22T12:53:47.643Z,11.10